メインページ
METAR-TAF:

METAR-TAF

空港 :

アルジェ, アルジェリア

ウアリ・ブーメディアン空港

緯度: 36-43N, 経度: 003-15E, 海抜: 25m

現時点の気象観測

当レポートは10分前の10:30(UTC)に作成
南西の風 3kt
気温 18°C
湿度 56%
気圧 1022 hPa
視程: 8000m

METAR: DAAG 191030Z 22003KT 8000 NSC 18/09 Q1022

時間: 11:40 (10:40 UTC)

予報

当レポートは5時間40分前の05:00(UTC)に作成
予報は19日の 06時(UTC)から 20日の 06時(UTC)まで有効
変向風 2kt
視程: 3000m
高度2000ftの雲はほとんどない
19日の 06時(UTC)から 19日の 08時(UTC)まで一時的に
視程: 0400m
19日の 08時(UTC)から 19日の 10時(UTC)まで徐々に
北東の風 10kt
視程: 8000m
19日の 16時(UTC)から 19日の 19時(UTC)まで徐々に
変向風 2kt

TAF: DAAG 190500Z 1906/2006 VRB02KT 3000 BR FEW020 TEMPO 1906/1908 0400 FG BECMG 1908/1910 04010KT 8000 NSW BECMG 1916/1919 VRB02KT

4,000以上の空港の気象観測と天気予報(METAR報とTAF報)

利用可能な観測所は地図上に黄色い丸と赤い丸で示す。

丸の上にカーソルを重ねると観測所名を参照できる。

次にクリックすると気象観測と天気予報を参照できる。

マップの切り替え:黒色「×」印の緑ボタンをクリックして拡大、「-」印の緑ボタンをクリックして縮小、緑色の三角印をクリックして隣りの地図に切り替え


METAR-TAF: